Granton, Wisconsin
Current Conditions -  °F | °C
As of 4:54 PM on Tuesday 25 Nov 2014 (Local Time) from KMFI Reporting Station
Clear Clear  
Wind Chill: 12°   Ceiling: Unl
Heat Index: 19°   Visibility: 10mi
Dew Point: 11°   Wind: 5mph
Humidity: 71%   Direction: 260°W
Pressure: 30.05"   Gusts: NA
Location:  44.59°N, 90.46°W
Report Text: KMFI 252254Z AUTO 26004KT 10SM CLR M07/M12 A3005 RMK AO2 SLP199 T10721117
Loading
Personal Weather Stations






























Interactive Weather Map New forecast layout! Learn more

10-Day Weather Forecast

Advertisements
Track Severe Weather on mobile